Time;durP1;ratioP1;P1;durP2;ratioP2;P2;SDS_P1;SDS_P2;PMS_P1;PMS_P2;Temp;Humidity;BMP_temperature;BMP_pressure;BME280_temperature;BME280_humidity;BME280_pressure;Samples;Min_cycle;Max_cycle;Signal;HPM_P1;HPM_P2
2021/09/09 00:00:14;;;;;;;17.98;12.35;;;;;;;17.42;57.01;100513.12;1728553;83;20971;-69
2021/09/09 00:02:41;;;;;;;14.98;12.35;;;;;;;17.43;57.06;100512.58;1727433;83;21019;-69
2021/09/09 00:05:10;;;;;;;17.73;13.38;;;;;;;17.43;56.94;100509.31;1728716;83;21050;-69
2021/09/09 00:07:37;;;;;;;20.85;13.30;;;;;;;17.45;56.79;100507.69;1728837;83;21809;-69
2021/09/09 00:10:08;;;;;;;21.77;14.65;;;;;;;17.49;56.61;100512.84;1728655;83;21501;-69
2021/09/09 00:12:37;;;;;;;19.65;12.30;;;;;;;17.50;56.54;100504.14;1727689;83;20968;-70
2021/09/09 00:15:06;;;;;;;23.95;14.07;;;;;;;17.53;56.51;100508.48;1712982;83;21604;-69
2021/09/09 00:17:35;;;;;;;21.10;13.72;;;;;;;17.54;56.50;100510.12;1711960;83;20957;-70
2021/09/09 00:20:08;;;;;;;18.87;14.05;;;;;;;17.55;56.50;100510.39;1712116;83;21980;-69
2021/09/09 00:22:35;;;;;;;19.50;14.35;;;;;;;17.56;56.55;100515.27;1701578;83;20955;-71
2021/09/09 00:25:03;;;;;;;23.57;15.23;;;;;;;17.55;56.61;100512.30;1714577;82;20999;-71
2021/09/09 00:27:31;;;;;;;26.90;14.30;;;;;;;17.53;56.80;100519.90;1714517;83;21095;-70
2021/09/09 00:29:57;;;;;;;20.70;15.00;;;;;;;17.51;57.00;100516.09;1723014;82;21079;-70
2021/09/09 00:32:26;;;;;;;22.35;15.23;;;;;;;17.47;57.24;100516.38;1731854;82;21084;-72
2021/09/09 00:34:52;;;;;;;23.35;16.77;;;;;;;17.44;57.48;100518.30;1738127;82;21044;-70
2021/09/09 00:37:22;;;;;;;28.20;16.97;;;;;;;17.41;57.73;100513.38;1744231;82;21002;-70
2021/09/09 00:39:50;;;;;;;26.42;16.30;;;;;;;17.37;57.90;100515.03;1744186;82;21007;-71
2021/09/09 00:42:17;;;;;;;24.23;15.83;;;;;;;17.31;58.12;100513.42;1718258;82;21019;-72
2021/09/09 00:44:43;;;;;;;21.45;16.32;;;;;;;17.26;58.38;100506.09;1714157;83;21924;-70
2021/09/09 00:47:10;;;;;;;27.80;18.90;;;;;;;17.25;58.48;100514.52;1726205;83;20965;-69
2021/09/09 00:49:40;;;;;;;28.25;18.40;;;;;;;17.22;58.64;100511.78;1711466;82;21076;-69
2021/09/09 00:52:09;;;;;;;26.00;17.55;;;;;;;17.21;58.84;100512.89;1738814;82;21564;-70
2021/09/09 00:54:35;;;;;;;25.27;18.85;;;;;;;17.15;58.88;100507.72;1739571;82;21558;-70
2021/09/09 00:57:03;;;;;;;19.50;16.07;;;;;;;17.12;59.08;100508.28;1738988;82;21048;-71
2021/09/09 00:59:32;;;;;;;22.22;16.23;;;;;;;17.09;59.26;100512.34;1715510;82;20951;-70
2021/09/09 01:01:59;;;;;;;22.60;15.85;;;;;;;17.08;59.28;100509.89;1738069;82;20951;-71
2021/09/09 01:04:25;;;;;;;22.52;17.75;;;;;;;17.07;59.31;100515.08;1714815;82;21556;-69
2021/09/09 01:06:54;;;;;;;26.50;16.82;;;;;;;17.06;59.38;100511.54;1739702;82;20984;-70
2021/09/09 01:09:20;;;;;;;22.75;18.15;;;;;;;17.08;59.49;100513.96;1739705;82;21207;-71
2021/09/09 01:11:48;;;;;;;33.15;22.10;;;;;;;17.07;59.43;100512.36;1739072;82;21012;-70
2021/09/09 01:14:17;;;;;;;26.35;21.05;;;;;;;17.06;59.47;100516.16;1738134;82;21026;-69
2021/09/09 01:16:46;;;;;;;33.15;20.90;;;;;;;17.04;59.70;100515.59;1739250;82;20951;-70
2021/09/09 01:19:13;;;;;;;27.27;20.43;;;;;;;17.02;59.69;100511.81;1739721;82;21037;-70
2021/09/09 01:21:41;;;;;;;32.35;19.15;;;;;;;17.02;59.76;100512.36;1739716;82;20947;-71
2021/09/09 01:24:20;;;;;;;22.27;18.73;;;;;;;16.98;59.94;100511.52;1731166;82;21585;-71
2021/09/09 01:27:00;;;;;;;24.55;17.98;;;;;;;16.96;60.03;100516.97;1730056;82;21052;-70
2021/09/09 01:29:30;;;;;;;22.85;18.12;;;;;;;16.93;60.14;100515.59;1712640;82;21035;-71
2021/09/09 01:31:56;;;;;;;22.98;17.02;;;;;;;16.89;60.35;100514.52;1741588;82;20967;-71
2021/09/09 01:34:23;;;;;;;23.38;16.17;;;;;;;16.84;60.58;100515.86;1735904;82;21270;-70
2021/09/09 01:36:50;;;;;;;25.32;17.73;;;;;;;16.79;60.96;100509.06;1739475;82;20971;-71
2021/09/09 01:39:17;;;;;;;27.20;19.02;;;;;;;16.75;61.17;100505.80;1705232;83;21045;-71
2021/09/09 01:41:44;;;;;;;28.90;19.52;;;;;;;16.72;61.29;100501.74;1713793;82;21038;-72
2021/09/09 01:44:10;;;;;;;26.17;21.25;;;;;;;16.70;61.39;100508.52;1733381;82;21529;-70
2021/09/09 01:46:38;;;;;;;33.88;23.50;;;;;;;16.67;61.78;100507.17;1733173;82;21044;-71
2021/09/09 01:49:05;;;;;;;22.70;19.52;;;;;;;16.67;62.09;100505.81;1709695;83;21008;-70
2021/09/09 01:51:31;;;;;;;28.40;20.35;;;;;;;16.66;62.07;100501.45;1728631;83;21079;-70
2021/09/09 01:53:58;;;;;;;28.35;20.00;;;;;;;16.65;62.17;100503.08;1703733;83;21051;-71
2021/09/09 01:56:24;;;;;;;24.00;20.12;;;;;;;16.62;62.28;100501.73;1703526;83;21599;-70
2021/09/09 01:58:50;;;;;;;32.00;23.90;;;;;;;16.63;62.36;100499.83;1724674;83;21091;-70
2021/09/09 02:01:18;;;;;;;28.90;21.40;;;;;;;16.62;62.45;100499.02;1711891;83;20956;-72
2021/09/09 02:03:45;;;;;;;35.98;21.93;;;;;;;16.62;62.42;100504.45;1723714;83;20987;-71
2021/09/09 02:06:11;;;;;;;38.45;23.85;;;;;;;16.61;62.52;100497.92;1728596;83;21046;-71
2021/09/09 02:08:38;;;;;;;30.35;20.27;;;;;;;16.61;62.68;100497.92;1701627;83;21102;-71
2021/09/09 02:11:06;;;;;;;27.48;22.40;;;;;;;16.60;62.70;100497.09;1728684;83;22896;-72
2021/09/09 02:13:33;;;;;;;29.23;21.62;;;;;;;16.60;62.70;100499.81;1678712;84;21480;-72
2021/09/09 02:16:00;;;;;;;32.70;21.55;;;;;;;16.57;62.75;100497.08;1675749;84;21042;-71
2021/09/09 02:18:26;;;;;;;28.92;23.05;;;;;;;16.57;62.93;100491.64;1699653;84;21006;-71
2021/09/09 02:20:55;;;;;;;32.70;25.15;;;;;;;16.60;62.97;100497.63;1684621;85;21087;-70
2021/09/09 02:23:21;;;;;;;27.17;21.17;;;;;;;16.60;62.88;100490.84;1707907;83;23328;-69
2021/09/09 02:25:48;;;;;;;27.25;21.40;;;;;;;16.59;62.92;100479.73;1684320;85;21019;-71
2021/09/09 02:28:14;;;;;;;26.75;21.35;;;;;;;16.58;63.01;100484.34;1713700;83;21534;-71
2021/09/09 02:30:41;;;;;;;30.12;21.10;;;;;;;16.57;63.05;100488.92;1728537;83;21055;-70
2021/09/09 02:33:09;;;;;;;27.00;20.40;;;;;;;16.57;63.13;100490.28;1684270;85;21015;-70
2021/09/09 02:35:35;;;;;;;24.43;19.12;;;;;;;16.58;63.15;100484.34;1743988;82;22267;-72
2021/09/09 02:38:03;;;;;;;30.20;23.15;;;;;;;16.57;63.24;100488.11;1734915;82;20963;-70
2021/09/09 02:40:30;;;;;;;30.52;21.75;;;;;;;16.59;63.32;100478.38;1732042;82;21520;-71
2021/09/09 02:42:56;;;;;;;29.52;22.85;;;;;;;16.62;63.29;100492.22;1716485;82;21503;-70
2021/09/09 02:45:23;;;;;;;28.95;23.32;;;;;;;16.61;63.20;100493.30;1718520;82;21038;-69
2021/09/09 02:47:50;;;;;;;31.85;22.37;;;;;;;16.60;63.25;100490.30;1743823;82;21138;-70
2021/09/09 02:50:17;;;;;;;34.63;23.22;;;;;;;16.62;63.29;100491.41;1736675;82;20966;-70
2021/09/09 02:52:44;;;;;;;29.07;21.52;;;;;;;16.62;63.24;100496.30;1735208;82;21558;-70
2021/09/09 02:55:11;;;;;;;27.95;19.60;;;;;;;16.62;63.08;100494.13;1713919;82;21508;-70
2021/09/09 02:57:38;;;;;;;27.20;20.35;;;;;;;16.61;63.05;100491.13;1713932;82;21015;-71
2021/09/09 03:00:07;;;;;;;28.98;19.20;;;;;;;16.60;63.10;100498.99;1735111;82;21263;-70
2021/09/09 03:02:34;;;;;;;26.30;19.85;;;;;;;16.57;63.11;100493.00;1735475;82;20955;-69
2021/09/09 03:05:01;;;;;;;22.40;17.85;;;;;;;16.56;63.02;100492.72;1735173;82;20978;-70
2021/09/09 03:07:29;;;;;;;23.27;19.20;;;;;;;16.56;62.98;100495.98;1734971;82;21457;-71
2021/09/09 03:09:55;;;;;;;23.87;18.70;;;;;;;16.56;63.02;100495.98;1734955;82;21102;-71
2021/09/09 03:12:21;;;;;;;26.15;18.95;;;;;;;16.57;63.00;100498.44;1735536;82;21036;-70
2021/09/09 03:14:49;;;;;;;22.27;17.92;;;;;;;16.57;62.87;100492.19;1735184;82;20966;-69
2021/09/09 03:17:17;;;;;;;26.12;20.10;;;;;;;16.58;62.72;100489.78;1735490;82;20955;-71
2021/09/09 03:19:44;;;;;;;20.72;15.80;;;;;;;16.57;62.66;100494.36;1735039;82;20991;-72
2021/09/09 03:22:11;;;;;;;18.40;15.10;;;;;;;16.58;62.64;100496.57;1735343;82;20994;-72
2021/09/09 03:24:37;;;;;;;20.15;16.23;;;;;;;16.57;62.53;100488.11;1690360;82;21042;-70
2021/09/09 03:27:04;;;;;;;18.32;15.32;;;;;;;16.57;62.47;100495.72;1734872;82;21011;-71
2021/09/09 03:29:30;;;;;;;18.57;14.78;;;;;;;16.56;62.56;100498.16;1735212;82;20947;-70
2021/09/09 03:31:57;;;;;;;18.87;15.25;;;;;;;16.55;62.68;100495.16;1713853;82;21150;-70
2021/09/09 03:34:23;;;;;;;27.27;16.20;;;;;;;16.55;62.85;100495.16;1735249;82;20988;-71
2021/09/09 03:36:50;;;;;;;21.97;15.08;;;;;;;16.55;62.86;100501.13;1734818;81;21847;-72
2021/09/09 03:39:16;;;;;;;23.15;16.40;;;;;;;16.53;62.90;100497.34;1735088;82;21583;-70
2021/09/09 03:41:42;;;;;;;24.75;16.60;;;;;;;16.52;62.92;100498.42;1735048;82;21086;-70
2021/09/09 03:44:09;;;;;;;23.22;17.10;;;;;;;16.51;62.93;100498.14;1714115;82;21464;-71
2021/09/09 03:46:36;;;;;;;21.90;16.42;;;;;;;16.52;62.93;100503.03;1713555;82;21019;-71
2021/09/09 03:49:02;;;;;;;22.77;17.42;;;;;;;16.49;62.92;100501.69;1735780;82;21253;-70
2021/09/09 03:51:30;;;;;;;21.12;16.70;;;;;;;16.47;62.89;100504.38;1740499;82;20945;-72
2021/09/09 03:53:57;;;;;;;22.60;17.32;;;;;;;16.45;62.96;100506.00;1717315;82;21026;-71
2021/09/09 03:56:24;;;;;;;25.43;19.27;;;;;;;16.40;63.04;100503.27;1715061;82;45433;-70
2021/09/09 03:58:50;;;;;;;27.95;19.15;;;;;;;16.35;63.21;100510.08;1731998;82;20976;-72
2021/09/09 04:01:16;;;;;;;26.87;19.17;;;;;;;16.30;63.41;100514.14;1696667;83;21137;-73
2021/09/09 04:03:46;;;;;;;28.70;19.70;;;;;;;16.26;63.63;100517.66;1728610;83;21018;-70
2021/09/09 04:06:13;;;;;;;27.13;18.55;;;;;;;16.21;63.93;100510.85;1701261;83;21046;-69
2021/09/09 04:08:40;;;;;;;22.02;17.90;;;;;;;16.17;64.09;100507.83;1702417;83;21098;-71
2021/09/09 04:11:06;;;;;;;26.90;19.45;;;;;;;16.14;64.24;100509.19;1696260;83;21024;-71
2021/09/09 04:13:33;;;;;;;26.97;19.87;;;;;;;16.14;64.36;100514.62;1711919;83;21826;-71
2021/09/09 04:15:59;;;;;;;29.65;21.75;;;;;;;16.10;64.63;100509.45;1713191;83;21572;-69
2021/09/09 04:18:27;;;;;;;25.95;19.67;;;;;;;16.07;64.82;100511.86;1712111;83;21002;-71
2021/09/09 04:20:53;;;;;;;29.77;20.72;;;;;;;16.06;64.92;100517.04;1722014;83;21476;-71
2021/09/09 04:23:20;;;;;;;27.95;20.88;;;;;;;16.01;65.18;100511.05;1726517;83;20912;-72
2021/09/09 04:25:47;;;;;;;28.65;20.15;;;;;;;15.97;65.40;100508.56;1728650;83;21157;-71
2021/09/09 04:28:14;;;;;;;33.73;20.68;;;;;;;15.93;65.68;100508.83;1728439;83;20935;-71
2021/09/09 04:30:41;;;;;;;27.00;18.73;;;;;;;15.89;65.75;100504.20;1728213;83;21547;-71
2021/09/09 04:33:08;;;;;;;29.48;19.90;;;;;;;15.87;65.89;100503.66;1728260;83;21008;-71
2021/09/09 04:35:35;;;;;;;31.40;21.57;;;;;;;15.85;66.12;100505.81;1728581;83;21023;-72
2021/09/09 04:38:01;;;;;;;28.55;19.48;;;;;;;15.82;66.41;100505.81;1727316;83;21784;-68
2021/09/09 04:40:30;;;;;;;33.63;21.77;;;;;;;15.80;66.47;100503.08;1728206;83;21118;-69
2021/09/09 04:42:58;;;;;;;28.92;21.90;;;;;;;15.76;66.58;100508.22;1728870;83;20998;-69
2021/09/09 04:45:25;;;;;;;40.35;21.73;;;;;;;15.74;66.79;100504.13;1701526;83;21063;-71
2021/09/09 04:47:52;;;;;;;29.77;22.85;;;;;;;15.73;66.93;100501.95;1703260;83;21090;-70
2021/09/09 04:50:22;;;;;;;34.35;22.42;;;;;;;15.73;66.96;100505.23;1733925;82;21053;-75
2021/09/09 04:52:49;;;;;;;36.73;21.70;;;;;;;15.72;67.05;100507.12;1738768;82;21538;-70
2021/09/09 04:55:16;;;;;;;37.13;21.42;;;;;;;15.72;67.16;100501.70;1694061;83;21035;-71
2021/09/09 04:57:42;;;;;;;41.65;25.97;;;;;;;15.72;67.32;100501.70;1704751;82;21063;-69
2021/09/09 05:00:10;;;;;;;29.90;22.50;;;;;;;15.69;67.56;100504.38;1708917;83;21046;-70
2021/09/09 05:02:37;;;;;;;33.83;23.87;;;;;;;15.69;67.61;100504.91;1724740;82;21065;-69
2021/09/09 05:05:05;;;;;;;27.35;22.67;;;;;;;15.66;67.70;100500.02;1735052;82;20939;-70
2021/09/09 05:07:31;;;;;;;39.45;24.67;;;;;;;15.67;67.90;100496.23;1713846;82;21085;-70
2021/09/09 05:09:58;;;;;;;31.15;20.27;;;;;;;15.69;68.01;100497.59;1735697;82;20982;-70
2021/09/09 05:12:24;;;;;;;35.85;25.10;;;;;;;15.75;68.10;100490.30;1736802;82;21016;-70
2021/09/09 05:14:51;;;;;;;35.73;22.55;;;;;;;15.78;68.09;100493.83;1735470;82;21143;-72
2021/09/09 05:17:18;;;;;;;34.00;24.32;;;;;;;15.82;68.06;100494.96;1730960;82;21532;-72
2021/09/09 05:19:44;;;;;;;34.63;22.62;;;;;;;15.84;68.16;100495.50;1731445;82;21010;-73
2021/09/09 05:22:11;;;;;;;29.48;22.13;;;;;;;15.87;68.13;100494.98;1714042;82;21162;-73
2021/09/09 05:24:37;;;;;;;31.02;21.85;;;;;;;15.92;68.01;100494.98;1714162;82;21098;-72
2021/09/09 05:27:04;;;;;;;31.95;21.62;;;;;;;15.95;68.08;100490.40;1713925;82;21517;-71
2021/09/09 05:29:34;;;;;;;37.65;23.73;;;;;;;15.98;68.08;100490.39;1735187;82;21003;-72
2021/09/09 05:32:00;;;;;;;28.52;21.20;;;;;;;15.97;68.17;100486.08;1712688;83;20987;-71
2021/09/09 05:34:27;;;;;;;31.35;24.12;;;;;;;16.01;68.27;100489.88;1731572;82;21062;-72
2021/09/09 05:36:53;;;;;;;34.27;24.90;;;;;;;16.01;68.31;100487.17;1714032;82;21063;-73
2021/09/09 05:39:20;;;;;;;37.17;23.57;;;;;;;16.02;68.32;100490.13;1735263;82;21983;-73
2021/09/09 05:41:46;;;;;;;27.60;22.50;;;;;;;16.02;68.39;100495.56;1735258;82;21066;-70
2021/09/09 05:44:13;;;;;;;30.27;22.82;;;;;;;16.04;68.44;100494.23;1734838;82;21515;-70
2021/09/09 05:46:40;;;;;;;32.88;22.58;;;;;;;16.06;68.41;100496.15;1730226;82;21177;-73
2021/09/09 05:49:07;;;;;;;33.28;23.80;;;;;;;16.09;68.48;100494.78;1730397;82;21547;-70
2021/09/09 05:51:35;;;;;;;32.73;23.73;;;;;;;16.11;68.59;100495.34;1728790;82;20923;-71
2021/09/09 05:54:02;;;;;;;40.78;25.02;;;;;;;16.14;68.63;100498.34;1728412;82;20950;-72
2021/09/09 05:56:29;;;;;;;41.90;27.02;;;;;;;16.20;68.67;100488.31;1728680;82;21065;-70
2021/09/09 05:58:57;;;;;;;40.35;24.35;;;;;;;16.28;68.59;100486.97;1736032;82;20968;-72
2021/09/09 06:01:24;;;;;;;34.73;22.98;;;;;;;16.36;68.60;100483.72;1733104;82;21069;-71
2021/09/09 06:03:51;;;;;;;27.32;20.77;;;;;;;16.46;68.51;100491.89;1730624;82;22369;-70
2021/09/09 06:06:18;;;;;;;32.60;22.77;;;;;;;16.55;68.25;100480.76;1729646;82;20959;-72
2021/09/09 06:08:46;;;;;;;40.23;23.45;;;;;;;16.62;68.04;100481.89;1734294;82;21634;-71
2021/09/09 06:11:14;;;;;;;39.80;22.80;;;;;;;16.67;67.94;100478.65;1737327;82;21118;-69
2021/09/09 06:13:42;;;;;;;33.80;23.38;;;;;;;16.75;68.00;100477.28;1716287;82;21015;-70
2021/09/09 06:16:08;;;;;;;35.10;22.42;;;;;;;16.83;67.85;100476.77;1734090;82;22131;-73
2021/09/09 06:18:35;;;;;;;31.45;22.30;;;;;;;16.88;67.74;100477.55;1713008;82;20927;-72
2021/09/09 06:21:02;;;;;;;34.03;21.25;;;;;;;16.93;67.53;100474.83;1712094;82;21520;-73
2021/09/09 06:23:29;;;;;;;31.33;21.70;;;;;;;16.98;67.52;100476.19;1737077;82;21023;-69
2021/09/09 06:25:55;;;;;;;28.70;21.25;;;;;;;17.06;67.50;100475.39;1737097;82;21042;-70
2021/09/09 06:28:22;;;;;;;31.75;22.70;;;;;;;17.13;67.31;100478.63;1736937;82;21188;-70
2021/09/09 06:30:48;;;;;;;26.75;21.57;;;;;;;17.20;67.06;100481.89;1730993;82;21003;-71
2021/09/09 06:33:14;;;;;;;28.07;21.40;;;;;;;17.27;66.87;100483.77;1736703;82;21079;-72
2021/09/09 06:35:43;;;;;;;26.42;20.37;;;;;;;17.36;66.56;100488.37;1700281;82;21058;-73
2021/09/09 06:38:09;;;;;;;27.22;19.65;;;;;;;17.45;66.18;100485.93;1727353;82;21503;-71
2021/09/09 06:40:36;;;;;;;27.80;20.65;;;;;;;17.54;65.89;100477.47;1728914;82;21125;-71
2021/09/09 06:43:03;;;;;;;27.22;21.85;;;;;;;17.65;65.56;100487.81;1711479;82;21000;-72
2021/09/09 06:45:29;;;;;;;32.75;19.73;;;;;;;17.75;65.20;100492.66;1731290;82;21005;-72
2021/09/09 06:47:55;;;;;;;32.08;20.17;;;;;;;17.84;64.92;100492.34;1731926;82;21583;-71
2021/09/09 06:50:22;;;;;;;31.45;20.72;;;;;;;17.94;64.73;100492.06;1730673;82;21059;-72
2021/09/09 06:52:48;;;;;;;28.90;22.02;;;;;;;18.02;64.43;100499.09;1696419;83;21309;-72
2021/09/09 06:55:15;;;;;;;33.33;22.58;;;;;;;18.10;64.12;100496.33;1697697;83;20974;-72
2021/09/09 06:57:41;;;;;;;26.37;22.67;;;;;;;18.18;63.59;100499.81;1701780;83;21019;-72
2021/09/09 07:00:10;;;;;;;23.80;19.45;;;;;;;18.25;63.17;100499.80;1717470;83;21472;-72
2021/09/09 07:02:36;;;;;;;28.67;19.45;;;;;;;18.34;63.03;100501.92;1726242;83;21012;-71
2021/09/09 07:05:04;;;;;;;26.95;19.48;;;;;;;18.41;62.72;100499.17;1726913;83;21195;-73
2021/09/09 07:07:31;;;;;;;32.98;19.85;;;;;;;18.50;62.47;100500.74;1728011;83;21011;-72
2021/09/09 07:09:57;;;;;;;31.82;20.48;;;;;;;18.59;62.00;100503.98;1703568;83;20991;-71
2021/09/09 07:12:24;;;;;;;25.80;19.98;;;;;;;18.67;61.73;100506.09;1703218;83;20916;-70
2021/09/09 07:14:52;;;;;;;30.48;19.55;;;;;;;18.77;61.59;100510.66;1720849;82;20935;-70
2021/09/09 07:17:20;;;;;;;30.00;20.57;;;;;;;18.85;61.27;100505.95;1728772;83;21082;-71
2021/09/09 07:19:47;;;;;;;27.37;19.00;;;;;;;18.93;60.79;100505.91;1728130;83;21083;-71
2021/09/09 07:22:13;;;;;;;33.42;20.02;;;;;;;19.01;60.65;100507.47;1724236;83;21070;-71
2021/09/09 07:24:39;;;;;;;21.82;16.75;;;;;;;19.09;60.51;100508.20;1705966;83;20999;-69
2021/09/09 07:27:06;;;;;;;38.38;19.17;;;;;;;19.17;60.30;100509.52;1675383;84;21002;-70
2021/09/09 07:29:32;;;;;;;28.87;18.37;;;;;;;19.25;60.08;100510.25;1675424;84;21300;-70
2021/09/09 07:31:59;;;;;;;32.25;17.65;;;;;;;19.35;59.78;100513.44;1684218;85;21298;-71
2021/09/09 07:34:26;;;;;;;27.02;18.85;;;;;;;19.43;59.62;100509.52;1718881;80;21515;-70
2021/09/09 07:36:56;;;;;;;28.32;18.57;;;;;;;19.53;59.49;100510.81;1761918;80;21082;-70
2021/09/09 07:39:23;;;;;;;22.00;15.43;;;;;;;19.63;59.32;100510.45;1741781;82;21022;-70
2021/09/09 07:41:49;;;;;;;24.65;16.65;;;;;;;19.73;58.74;100508.97;1721338;83;21567;-71
2021/09/09 07:44:16;;;;;;;26.25;15.70;;;;;;;19.82;58.50;100505.86;1728665;83;21043;-68
2021/09/09 07:46:42;;;;;;;23.25;16.00;;;;;;;19.91;58.45;100509.02;1727826;83;20943;-72
2021/09/09 07:49:15;;;;;;;24.50;17.10;;;;;;;20.02;58.06;100515.17;1726680;83;21010;-69
2021/09/09 07:51:39;;;;;;;27.40;15.53;;;;;;;20.11;57.68;100508.51;1731912;82;21003;-70
2021/09/09 07:54:05;;;;;;;27.58;15.72;;;;;;;20.20;57.39;100511.66;1735056;82;21947;-74
2021/09/09 07:56:33;;;;;;;23.95;15.58;;;;;;;20.30;57.01;100515.66;1735125;82;20907;-71
2021/09/09 07:58:59;;;;;;;24.67;15.68;;;;;;;20.40;56.72;100514.70;1735131;82;21472;-72
2021/09/09 08:01:26;;;;;;;24.95;15.65;;;;;;;20.50;56.33;100515.11;1721483;82;21008;-71
2021/09/09 08:03:52;;;;;;;17.50;13.45;;;;;;;20.60;55.28;100520.44;1713833;82;21043;-70
2021/09/09 08:06:19;;;;;;;18.17;13.35;;;;;;;20.70;54.29;100516.19;1739587;82;21138;-71
2021/09/09 08:08:48;;;;;;;21.07;11.85;;;;;;;20.77;52.83;100517.42;1739659;82;21481;-70
2021/09/09 08:11:14;;;;;;;19.32;14.15;;;;;;;20.83;52.19;100514.87;1715201;82;21020;-72
2021/09/09 08:13:40;;;;;;;21.10;13.72;;;;;;;20.91;52.40;100509.27;1731184;82;21078;-71
2021/09/09 08:16:09;;;;;;;19.67;13.62;;;;;;;20.98;52.31;100508.34;1730415;82;20983;-71
2021/09/09 08:18:35;;;;;;;21.65;12.25;;;;;;;21.04;52.30;100504.42;1731068;82;21492;-72
2021/09/09 08:21:01;;;;;;;22.67;13.35;;;;;;;21.12;51.93;100508.38;1739879;82;20970;-76
2021/09/09 08:23:28;;;;;;;29.77;13.48;;;;;;;21.22;51.48;100510.42;1735899;82;21042;-72
2021/09/09 08:25:55;;;;;;;17.10;11.97;;;;;;;21.30;51.20;100507.55;1714114;82;21051;-71
2021/09/09 08:28:21;;;;;;;18.95;13.40;;;;;;;21.40;50.74;100508.73;1739572;82;20991;-70
2021/09/09 08:30:48;;;;;;;20.92;14.00;;;;;;;21.46;50.31;100506.72;1712125;82;22210;-71
2021/09/09 08:33:15;;;;;;;15.60;11.75;;;;;;;21.55;50.12;100509.82;1710105;84;20929;-73
2021/09/09 08:35:42;;;;;;;18.62;14.13;;;;;;;21.61;49.87;100512.72;1687717;83;20997;-72
2021/09/09 08:38:10;;;;;;;16.57;12.43;;;;;;;21.66;49.75;100504.41;1729206;82;21551;-70
2021/09/09 08:40:38;;;;;;;27.25;11.95;;;;;;;21.73;49.69;100502.07;1739115;82;21078;-70
2021/09/09 08:43:07;;;;;;;21.87;11.03;;;;;;;21.82;49.54;100497.27;1713914;82;21149;-71
2021/09/09 08:45:35;;;;;;;14.93;11.65;;;;;;;21.92;49.51;100495.70;1735000;82;20998;-72
2021/09/09 08:48:04;;;;;;;13.80;10.90;;;;;;;22.03;48.89;100501.23;1734654;82;21028;-71
2021/09/09 08:50:31;;;;;;;17.90;11.97;;;;;;;22.12;48.02;100507.05;1731707;82;21040;-71
2021/09/09 08:53:00;;;;;;;20.00;11.70;;;;;;;22.17;48.12;100500.65;1735517;82;21521;-70
2021/09/09 08:55:27;;;;;;;16.32;11.05;;;;;;;22.22;47.92;100499.73;1729027;82;21192;-72
2021/09/09 08:57:57;;;;;;;20.57;12.07;;;;;;;22.28;47.91;100494.40;1727064;82;21003;-71
2021/09/09 09:00:24;;;;;;;29.72;13.28;;;;;;;22.36;47.98;100493.09;1733942;82;21571;-70
2021/09/09 09:02:53;;;;;;;12.63;10.05;;;;;;;22.46;47.66;100489.31;1732124;82;21050;-70
2021/09/09 09:05:21;;;;;;;17.50;11.83;;;;;;;22.57;47.50;100499.75;1732675;82;21002;-69
2021/09/09 09:08:03;;;;;;;15.20;11.22;;;;;;;22.68;47.26;100496.78;1706301;83;21138;-71
2021/09/09 09:10:31;;;;;;;17.63;10.77;;;;;;;22.75;46.61;100508.14;1708848;83;21026;-69
2021/09/09 09:12:59;;;;;;;17.48;10.88;;;;;;;22.81;46.15;100491.27;1711216;83;20951;-70
2021/09/09 09:15:31;;;;;;;16.50;10.63;;;;;;;22.86;46.10;100493.06;1682318;85;21035;-69
2021/09/09 09:18:06;;;;;;;14.03;11.70;;;;;;;22.89;45.74;100490.50;1714104;82;26989;-70
2021/09/09 09:20:51;;;;;;;14.90;10.13;;;;;;;22.95;45.59;100497.49;1729227;82;21093;-74
2021/09/09 09:23:26;;;;;;;13.90;10.25;;;;;;;23.02;45.39;100497.84;1705341;83;21018;-73
2021/09/09 09:26:01;;;;;;;15.05;9.33;;;;;;;23.08;45.49;100484.00;1688266;82;20968;-70
2021/09/09 09:28:51;;;;;;;12.30;9.63;;;;;;;23.14;45.10;100489.05;1710482;82;21102;-69
2021/09/09 09:31:23;;;;;;;14.23;11.33;;;;;;;23.19;44.77;100497.16;1735285;82;21066;-69
2021/09/09 09:33:54;;;;;;;14.28;11.10;;;;;;;23.26;44.87;100483.00;1735087;82;21136;-71
2021/09/09 09:36:39;;;;;;;15.20;9.73;;;;;;;23.32;44.67;100494.07;1737236;82;21043;-73
2021/09/09 09:39:14;;;;;;;17.82;11.53;;;;;;;23.32;43.63;100488.58;1728131;82;20978;-72
2021/09/09 09:41:54;;;;;;;17.40;11.10;;;;;;;23.29;43.90;100490.03;1726789;81;21050;-70
2021/09/09 09:44:31;;;;;;;14.20;9.75;;;;;;;23.29;44.74;100485.91;1718652;82;21522;-70
2021/09/09 09:47:20;;;;;;;11.93;9.60;;;;;;;23.34;44.42;100486.34;1730379;82;20991;-70
2021/09/09 09:49:53;;;;;;;17.62;10.25;;;;;;;23.37;43.73;100489.81;1725319;82;21087;-73
2021/09/09 09:52:27;;;;;;;15.15;10.50;;;;;;;23.38;43.31;100470.30;1722449;82;21051;-68
2021/09/09 09:54:56;;;;;;;14.58;10.63;;;;;;;23.41;43.25;100468.28;1707484;83;20992;-69
2021/09/09 09:57:24;;;;;;;13.58;10.38;;;;;;;23.46;43.50;100487.39;1719367;83;21559;-69
2021/09/09 09:59:51;;;;;;;15.23;10.43;;;;;;;23.51;43.43;100462.28;1723031;83;21770;-69
2021/09/09 10:02:18;;;;;;;12.78;9.78;;;;;;;23.50;43.06;100478.55;1720657;83;21008;-70
2021/09/09 10:04:47;;;;;;;14.53;10.98;;;;;;;23.52;43.12;100470.78;1682287;84;21498;-70
2021/09/09 10:07:15;;;;;;;15.40;10.85;;;;;;;23.52;43.52;100461.98;1712986;83;21572;-76
2021/09/09 10:09:42;;;;;;;16.30;10.98;;;;;;;23.54;43.66;100462.48;1705465;83;21080;-70
2021/09/09 10:12:10;;;;;;;21.42;10.85;;;;;;;23.57;43.82;100465.96;1660078;86;21220;-72
2021/09/09 10:14:46;;;;;;;18.37;10.18;;;;;;;23.61;44.17;100462.01;1694303;84;21012;-72
2021/09/09 10:17:18;;;;;;;13.88;10.45;;;;;;;23.66;44.16;100450.31;1714322;83;21060;-78
2021/09/09 10:19:47;;;;;;;13.70;10.48;;;;;;;23.74;43.39;100462.48;1716446;83;21566;-72
2021/09/09 10:22:16;;;;;;;15.55;10.55;;;;;;;23.78;43.47;100450.53;1712355;83;21184;-70
2021/09/09 10:24:45;;;;;;;13.35;10.45;;;;;;;23.83;43.95;100446.27;1700135;83;21136;-73
2021/09/09 10:27:24;;;;;;;14.05;10.23;;;;;;;23.91;43.51;100458.39;1718965;83;20945;-73
2021/09/09 10:29:53;;;;;;;14.68;10.82;;;;;;;23.95;43.34;100449.75;1665435;86;20967;-74
2021/09/09 10:32:40;;;;;;;23.60;10.95;;;;;;;24.05;43.78;100440.39;1729278;83;21559;-78
2021/09/09 10:35:26;;;;;;;16.67;12.23;;;;;;;24.17;42.68;100440.02;1725638;83;22220;-75
2021/09/09 10:37:54;;;;;;;;;;;;;;;24.30;42.59;100439.08;1723739;83;21154;-76
2021/09/09 10:40:31;;;;;;;16.60;11.25;;;;;;;24.38;42.34;100431.14;1710530;83;20087;-73
2021/09/09 10:43:27;;;;;;;14.93;10.93;;;;;;;24.43;42.42;100429.60;1699057;83;21059;-75
2021/09/09 10:46:07;;;;;;;13.80;11.73;;;;;;;24.50;41.97;100421.13;1705001;83;21500;-74
2021/09/09 10:48:34;;;;;;;15.85;10.95;;;;;;;24.61;41.49;100431.20;1704863;83;21032;-73
2021/09/09 10:51:12;;;;;;;22.05;10.20;;;;;;;24.70;41.69;100429.25;1722562;82;21039;-74
2021/09/09 10:53:56;;;;;;;11.70;10.30;;;;;;;24.77;41.40;100424.07;1718901;83;21054;-72
2021/09/09 10:56:25;;;;;;;12.05;8.98;;;;;;;24.80;41.14;100417.91;1720487;83;21011;-72
2021/09/09 10:59:18;;;;;;;15.85;10.35;;;;;;;24.79;40.87;100424.56;1680515;84;21040;-71
2021/09/09 11:01:46;;;;;;;12.82;10.05;;;;;;;24.90;40.63;100413.46;1712534;83;21548;-73
2021/09/09 11:04:30;;;;;;;13.10;10.40;;;;;;;25.04;39.68;100419.58;1696502;83;21230;-75
2021/09/09 11:06:59;;;;;;;11.20;8.88;;;;;;;25.06;39.43;100421.45;1721370;83;20947;-74
2021/09/09 11:09:27;;;;;;;18.73;10.55;;;;;;;25.19;39.19;100407.22;1686367;84;21606;-78
2021/09/09 11:12:02;;;;;;;16.55;9.98;;;;;;;25.36;39.15;100414.05;1716041;83;21552;-79
2021/09/09 11:14:31;;;;;;;22.73;10.72;;;;;;;25.47;39.46;100413.09;1686083;84;21067;-75